createdAt,value
2019-03-04T00:01:26.353Z,5.67
2019-03-04T00:03:57.000Z,5.77
2019-03-04T00:06:27.967Z,5.00
2019-03-04T00:08:58.846Z,4.30
2019-03-04T00:11:29.354Z,5.57
2019-03-04T00:14:00.133Z,4.80
2019-03-04T00:16:31.124Z,4.63
2019-03-04T00:19:01.725Z,4.83
2019-03-04T00:21:32.842Z,5.27
2019-03-04T00:24:03.633Z,5.33
2019-03-04T00:26:34.517Z,4.90
2019-03-04T00:29:05.161Z,5.40
2019-03-04T00:31:36.064Z,4.13
2019-03-04T00:34:06.817Z,5.00
2019-03-04T00:36:37.481Z,4.70
2019-03-04T00:39:11.139Z,5.10
2019-03-04T00:41:42.343Z,4.60
2019-03-04T00:44:13.057Z,5.13
2019-03-04T00:46:43.574Z,4.60
2019-03-04T00:49:14.499Z,4.60
2019-03-04T00:51:45.251Z,4.87
2019-03-04T00:54:15.891Z,5.30
2019-03-04T00:56:46.425Z,4.40
2019-03-04T00:59:17.289Z,4.87
2019-03-04T01:01:47.893Z,4.80
2019-03-04T01:04:18.672Z,5.00
2019-03-04T01:06:49.404Z,5.00
2019-03-04T01:09:20.260Z,4.20
2019-03-04T01:11:50.813Z,4.60
2019-03-04T01:14:21.668Z,3.80
2019-03-04T01:16:52.609Z,4.30
2019-03-04T01:19:23.321Z,3.87
2019-03-04T01:21:54.266Z,5.07
2019-03-04T01:24:24.794Z,4.10
2019-03-04T01:26:55.499Z,3.80
2019-03-04T01:29:26.133Z,3.47
2019-03-04T01:31:56.815Z,4.20
2019-03-04T01:34:27.435Z,3.83
2019-03-04T01:36:58.065Z,3.57
2019-03-04T01:39:28.687Z,3.60
2019-03-04T01:41:59.342Z,3.93
2019-03-04T01:44:30.064Z,3.23
2019-03-04T01:47:00.639Z,2.70
2019-03-04T01:49:31.564Z,3.40
2019-03-04T01:52:02.178Z,2.80
2019-03-04T01:54:33.049Z,2.93
2019-03-04T01:57:03.829Z,3.00
2019-03-04T01:59:34.665Z,2.90
2019-03-04T02:02:05.574Z,3.60
2019-03-04T02:04:36.348Z,3.70
2019-03-04T02:07:06.879Z,3.53
2019-03-04T02:09:37.863Z,3.30
2019-03-04T02:12:09.470Z,3.30
2019-03-04T02:14:40.274Z,3.07
2019-03-04T02:17:10.956Z,3.20
2019-03-04T02:19:41.623Z,3.57
2019-03-04T02:22:12.076Z,3.33
2019-03-04T02:24:42.624Z,3.87
2019-03-04T02:27:13.302Z,3.50
2019-03-04T02:29:43.888Z,3.47
2019-03-04T02:32:14.466Z,3.90
2019-03-04T02:34:44.993Z,3.60
2019-03-04T02:37:15.664Z,3.10
2019-03-04T02:39:46.239Z,3.63
2019-03-04T02:42:16.823Z,3.80
2019-03-04T02:44:47.692Z,4.07
2019-03-04T02:47:18.484Z,4.47
2019-03-04T02:49:49.103Z,3.50
2019-03-04T02:52:19.794Z,3.80
2019-03-04T02:54:50.423Z,3.40
2019-03-04T02:57:21.879Z,4.03
2019-03-04T02:59:52.523Z,3.70
2019-03-04T03:02:23.340Z,4.10
2019-03-04T03:04:54.058Z,4.30
2019-03-04T03:07:25.113Z,3.63
2019-03-04T03:09:55.927Z,4.23
2019-03-04T03:12:26.955Z,3.77
2019-03-04T03:14:57.921Z,4.13
2019-03-04T03:17:28.734Z,3.77
2019-03-04T03:19:59.297Z,3.10
2019-03-04T03:22:30.022Z,3.70
2019-03-04T03:25:00.757Z,3.70
2019-03-04T03:27:31.284Z,3.77
2019-03-04T03:30:02.032Z,3.90
2019-03-04T03:32:34.229Z,3.60
2019-03-04T03:35:08.125Z,3.70
2019-03-04T03:37:37.596Z,3.97
2019-03-04T03:40:10.087Z,4.10
2019-03-04T03:42:40.668Z,3.53
2019-03-04T03:45:11.610Z,3.73
2019-03-04T03:47:42.126Z,3.87
2019-03-04T03:50:12.729Z,3.60
2019-03-04T03:52:43.482Z,3.73
2019-03-04T03:55:14.241Z,3.60
2019-03-04T03:57:44.856Z,3.70
2019-03-04T04:00:16.718Z,4.17
2019-03-04T04:02:47.364Z,3.80
2019-03-04T04:05:18.125Z,4.07
2019-03-04T04:07:48.758Z,3.47
2019-03-04T04:10:19.548Z,3.70
2019-03-04T04:12:50.170Z,3.77
2019-03-04T04:15:21.112Z,3.80
2019-03-04T04:17:51.577Z,3.43
2019-03-04T04:20:23.779Z,3.30
2019-03-04T04:22:54.387Z,3.97
2019-03-04T04:25:24.939Z,3.07
2019-03-04T04:27:55.451Z,3.97
2019-03-04T04:30:26.911Z,4.20
2019-03-04T04:32:57.669Z,3.30
2019-03-04T04:35:28.983Z,3.90
2019-03-04T04:37:59.551Z,4.27
2019-03-04T04:40:30.391Z,4.07
2019-03-04T04:43:01.036Z,3.77
2019-03-04T04:45:31.607Z,2.73
2019-03-04T04:48:02.513Z,3.90
2019-03-04T04:50:32.976Z,3.80
2019-03-04T04:53:04.388Z,4.00
2019-03-04T04:55:35.081Z,4.07
2019-03-04T04:58:05.614Z,4.10
2019-03-04T05:00:36.318Z,3.60
2019-03-04T05:03:07.024Z,4.17
2019-03-04T05:05:37.882Z,3.47
2019-03-04T05:08:08.412Z,4.30
2019-03-04T05:10:39.301Z,2.97
2019-03-04T05:13:09.961Z,2.90
2019-03-04T05:15:40.744Z,3.63
2019-03-04T05:18:11.604Z,2.80
2019-03-04T05:20:42.143Z,3.57
2019-03-04T05:23:12.711Z,3.70
2019-03-04T05:25:43.447Z,3.80
2019-03-04T05:28:13.985Z,3.47
2019-03-04T05:30:44.719Z,3.60
2019-03-04T05:33:15.217Z,4.10
2019-03-04T05:35:45.885Z,4.30
2019-03-04T05:38:16.649Z,4.17
2019-03-04T05:40:47.148Z,3.50
2019-03-04T05:43:17.933Z,3.70
2019-03-04T05:45:48.539Z,4.40
2019-03-04T05:48:19.143Z,3.77
2019-03-04T05:50:50.088Z,3.53
2019-03-04T05:53:21.010Z,5.03
2019-03-04T05:55:51.517Z,4.50
2019-03-04T05:58:22.264Z,4.70
2019-03-04T06:01:25.620Z,3.73
2019-03-04T06:03:58.394Z,5.13
2019-03-04T06:07:03.337Z,5.13
2019-03-04T06:09:33.889Z,5.80
2019-03-04T06:12:04.623Z,5.13
2019-03-04T06:14:38.083Z,4.57
2019-03-04T06:17:08.692Z,4.83
2019-03-04T06:19:39.737Z,4.93
2019-03-04T06:22:10.650Z,5.07
2019-03-04T06:24:41.498Z,4.63
2019-03-04T06:27:12.122Z,4.53
2019-03-04T06:29:42.802Z,4.70
2019-03-04T06:32:13.467Z,6.07
2019-03-04T06:34:44.958Z,5.67
2019-03-04T06:37:15.550Z,5.67
2019-03-04T06:39:47.980Z,5.60
2019-03-04T06:42:18.522Z,5.37
2019-03-04T06:44:49.277Z,4.00
2019-03-04T06:47:20.174Z,5.90
2019-03-04T06:49:50.888Z,4.97
2019-03-04T06:52:21.843Z,5.00
2019-03-04T06:55:23.963Z,5.80
2019-03-04T06:57:54.889Z,3.73
2019-03-04T07:01:05.406Z,4.00
2019-03-04T07:03:45.628Z,4.57
2019-03-04T07:06:16.557Z,3.17
2019-03-04T07:09:11.265Z,4.47
2019-03-04T07:11:55.096Z,4.30
2019-03-04T07:14:25.685Z,3.60
2019-03-04T07:16:56.368Z,4.53
2019-03-04T07:19:28.880Z,3.40
2019-03-04T07:21:59.513Z,3.00
2019-03-04T07:24:31.111Z,4.30
2019-03-04T07:27:02.673Z,4.40
2019-03-04T07:29:33.738Z,3.63
2019-03-04T07:32:04.548Z,3.30
2019-03-04T07:34:35.387Z,3.37
2019-03-04T07:37:06.419Z,3.30
2019-03-04T07:39:37.009Z,3.57
2019-03-04T07:42:07.841Z,3.63
2019-03-04T07:44:38.573Z,3.30
2019-03-04T07:47:09.651Z,3.73
2019-03-04T07:49:40.516Z,3.57
2019-03-04T07:52:11.233Z,3.83
2019-03-04T07:54:41.761Z,3.37
2019-03-04T07:57:12.399Z,3.77
2019-03-04T07:59:43.292Z,3.50
2019-03-04T08:02:13.765Z,4.10
2019-03-04T08:04:44.689Z,4.33
2019-03-04T08:07:37.362Z,3.87
2019-03-04T08:10:35.592Z,4.07
2019-03-04T08:13:09.575Z,4.50
2019-03-04T08:15:43.096Z,3.90
2019-03-04T08:18:14.089Z,3.60
2019-03-04T08:20:45.078Z,3.73
2019-03-04T08:23:18.031Z,3.37
2019-03-04T08:25:48.757Z,3.90
2019-03-04T08:28:19.606Z,4.50
2019-03-04T08:30:50.439Z,3.23
2019-03-04T08:33:21.323Z,3.60
2019-03-04T08:35:52.215Z,5.80
2019-03-04T08:38:22.768Z,3.70
2019-03-04T08:40:53.649Z,3.40
2019-03-04T08:43:24.554Z,4.50
2019-03-04T08:45:55.663Z,3.10
2019-03-04T08:48:26.739Z,3.60
2019-03-04T08:50:57.675Z,3.17
2019-03-04T08:53:28.479Z,3.83
2019-03-04T08:55:59.369Z,2.90
2019-03-04T08:58:30.585Z,2.97
2019-03-04T09:01:01.357Z,3.97
2019-03-04T09:03:32.516Z,3.57
2019-03-04T09:06:03.422Z,3.23
2019-03-04T09:08:34.474Z,2.60
2019-03-04T09:11:05.580Z,2.70
2019-03-04T09:13:37.290Z,2.50
2019-03-04T09:16:08.044Z,2.30
2019-03-04T09:18:38.735Z,2.67
2019-03-04T09:21:09.567Z,3.17
2019-03-04T09:23:40.585Z,2.97
2019-03-04T09:26:12.198Z,2.10
2019-03-04T09:28:43.335Z,2.40
2019-03-04T09:31:14.332Z,2.00
2019-03-04T09:33:45.517Z,2.20
2019-03-04T09:36:16.367Z,2.90
2019-03-04T09:38:47.116Z,2.30
2019-03-04T09:41:18.337Z,2.20
2019-03-04T09:43:49.131Z,2.10
2019-03-04T09:46:19.956Z,2.67
2019-03-04T09:48:50.624Z,2.70
2019-03-04T09:51:24.667Z,4.90
2019-03-04T09:53:54.371Z,2.30
2019-03-04T09:56:25.317Z,2.33
2019-03-04T09:58:56.309Z,1.90
2019-03-04T10:01:34.647Z,2.40
2019-03-04T10:04:47.655Z,2.13
2019-03-04T10:08:01.273Z,2.60
2019-03-04T10:10:59.695Z,1.93
2019-03-04T10:13:45.029Z,1.83
2019-03-04T10:16:34.236Z,2.07
2019-03-04T10:19:50.803Z,3.77
2019-03-04T10:23:00.896Z,2.10
2019-03-04T10:26:22.237Z,1.97
2019-03-04T10:29:07.939Z,2.20
2019-03-04T10:32:10.219Z,2.63
2019-03-04T10:35:02.200Z,2.10
2019-03-04T10:38:00.386Z,2.40
2019-03-04T10:41:11.462Z,2.13
2019-03-04T10:44:13.010Z,1.60
2019-03-04T10:46:57.195Z,2.20
2019-03-04T10:49:32.712Z,2.03
2019-03-04T10:52:03.492Z,2.00
2019-03-04T10:54:34.610Z,2.83
2019-03-04T10:57:05.279Z,2.00
2019-03-04T10:59:36.093Z,1.70
2019-03-04T11:02:06.916Z,2.30
2019-03-04T11:04:38.119Z,6.93
2019-03-04T11:07:09.057Z,1.87
2019-03-04T11:09:40.025Z,1.87
2019-03-04T11:12:10.761Z,1.70
2019-03-04T11:14:41.604Z,2.13
2019-03-04T11:17:12.188Z,1.80
2019-03-04T11:19:43.097Z,1.87
2019-03-04T11:22:14.071Z,1.83
2019-03-04T11:24:45.961Z,2.40
2019-03-04T11:27:16.747Z,1.83
2019-03-04T11:29:47.504Z,2.30
2019-03-04T11:32:18.143Z,1.80
2019-03-04T11:34:49.090Z,3.03
2019-03-04T11:37:19.562Z,1.80
2019-03-04T11:40:04.067Z,1.63
2019-03-04T11:42:34.595Z,2.00
2019-03-04T11:45:07.587Z,2.13
2019-03-04T11:47:38.654Z,1.43
2019-03-04T11:50:11.818Z,1.87
2019-03-04T11:52:42.672Z,4.30
2019-03-04T11:55:13.367Z,1.80
2019-03-04T11:57:44.226Z,1.80
2019-03-04T12:00:20.362Z,2.17
2019-03-04T12:02:51.147Z,1.90
2019-03-04T12:05:21.802Z,1.47
2019-03-04T12:07:52.490Z,1.97
2019-03-04T12:10:23.127Z,2.20
2019-03-04T12:12:53.832Z,2.83
2019-03-04T12:15:25.450Z,1.87
2019-03-04T12:17:56.394Z,1.60
2019-03-04T12:20:27.155Z,1.83
2019-03-04T12:22:57.908Z,1.53
2019-03-04T12:25:29.547Z,1.53
2019-03-04T12:28:00.051Z,1.60
2019-03-04T12:30:31.040Z,1.87
2019-03-04T12:33:01.919Z,2.00
2019-03-04T12:35:32.606Z,1.63
2019-03-04T12:38:04.470Z,1.40
2019-03-04T12:40:35.154Z,1.77
2019-03-04T12:51:31.776Z,1.43
2019-03-04T12:54:09.918Z,1.50
2019-03-04T12:56:40.508Z,2.63
2019-03-04T12:59:11.053Z,1.60
2019-03-04T13:01:41.709Z,1.50
2019-03-04T13:04:12.675Z,1.90
2019-03-04T13:06:43.334Z,2.10
2019-03-04T13:09:14.921Z,1.70
2019-03-04T13:11:45.887Z,1.67
2019-03-04T13:14:17.023Z,1.50
2019-03-04T13:16:47.742Z,5.83
2019-03-04T13:19:18.515Z,1.60
2019-03-04T13:21:49.525Z,1.60
2019-03-04T13:24:20.297Z,2.00
2019-03-04T13:26:51.806Z,1.40
2019-03-04T13:29:22.379Z,1.60
2019-03-04T13:31:52.875Z,1.57
2019-03-04T13:34:24.530Z,1.53
2019-03-04T13:36:56.713Z,1.43
2019-03-04T13:39:27.616Z,1.43
2019-03-04T13:41:58.158Z,1.50
2019-03-04T13:44:28.690Z,1.80
2019-03-04T13:46:59.404Z,1.60
2019-03-04T13:49:30.108Z,2.70
2019-03-04T13:52:00.721Z,1.40
2019-03-04T13:54:32.971Z,1.80
2019-03-04T13:57:03.848Z,1.60
2019-03-04T13:59:34.534Z,1.53
2019-03-04T14:02:06.594Z,1.53
2019-03-04T14:04:41.555Z,1.83
2019-03-04T14:07:16.105Z,1.67
2019-03-04T14:09:50.144Z,1.63
2019-03-04T14:12:21.291Z,2.10
2019-03-04T14:14:52.113Z,2.40
2019-03-04T14:17:24.450Z,2.80
2019-03-04T14:19:55.316Z,2.10
2019-03-04T14:22:26.101Z,2.20
2019-03-04T14:24:56.912Z,2.20
2019-03-04T14:27:28.966Z,4.30
2019-03-04T14:30:01.013Z,3.57
2019-03-04T14:32:33.773Z,3.40
2019-03-04T14:35:04.816Z,3.47
2019-03-04T14:37:35.701Z,2.13
2019-03-04T14:40:06.887Z,2.13
2019-03-04T14:42:41.013Z,2.37
2019-03-04T14:45:13.830Z,2.83
2019-03-04T14:47:44.363Z,1.90
2019-03-04T14:50:16.613Z,2.50
2019-03-04T14:52:47.804Z,2.30
2019-03-04T14:55:19.231Z,2.07
2019-03-04T14:57:49.988Z,2.23
2019-03-04T15:00:25.906Z,2.37
2019-03-04T15:03:01.224Z,1.90
2019-03-04T15:05:29.254Z,2.47
2019-03-04T15:07:59.880Z,1.80
2019-03-04T15:10:30.289Z,1.73
2019-03-04T15:13:01.162Z,1.70
2019-03-04T15:15:32.084Z,2.17
2019-03-04T15:18:02.730Z,2.27
2019-03-04T15:20:34.521Z,2.20
2019-03-04T15:23:05.243Z,2.37
2019-03-04T15:25:36.109Z,2.23
2019-03-04T15:28:17.880Z,2.40
2019-03-04T15:30:52.538Z,2.37
2019-03-04T15:33:23.077Z,2.00
2019-03-04T15:35:53.779Z,2.60
2019-03-04T15:38:24.304Z,2.87
2019-03-04T15:40:54.803Z,2.80
2019-03-04T15:43:26.808Z,3.37
2019-03-04T15:45:57.971Z,3.33
2019-03-04T15:48:29.211Z,3.40
2019-03-04T15:51:00.021Z,3.40
2019-03-04T15:53:32.247Z,3.23
2019-03-04T15:56:03.424Z,2.87
2019-03-04T15:58:34.136Z,2.97
2019-03-04T16:01:05.853Z,2.83
2019-03-04T16:03:36.886Z,3.37
2019-03-04T16:06:07.578Z,3.57
2019-03-04T16:08:38.621Z,2.83
2019-03-04T16:11:09.325Z,3.47
2019-03-04T16:13:40.475Z,3.27
2019-03-04T16:16:11.076Z,3.50
2019-03-04T16:18:42.359Z,3.57
2019-03-04T16:21:13.270Z,4.33
2019-03-04T16:23:43.928Z,4.13
2019-03-04T16:26:15.396Z,3.70
2019-03-04T16:28:46.311Z,4.20
2019-03-04T16:31:16.941Z,4.80
2019-03-04T16:33:48.650Z,4.50
2019-03-04T16:36:19.793Z,4.17
2019-03-04T16:38:50.800Z,4.40
2019-03-04T16:41:21.283Z,4.70
2019-03-04T16:43:51.869Z,4.43
2019-03-04T16:46:22.909Z,5.03
2019-03-04T16:48:53.503Z,5.00
2019-03-04T16:51:24.253Z,5.23
2019-03-04T16:53:55.167Z,6.20
2019-03-04T16:56:26.304Z,6.20
2019-03-04T16:58:58.079Z,5.60
2019-03-04T17:01:29.084Z,6.33
2019-03-04T17:04:00.066Z,5.57
2019-03-04T17:06:31.297Z,5.03
2019-03-04T17:09:02.313Z,4.37
2019-03-04T17:11:34.922Z,4.90
2019-03-04T17:14:05.399Z,5.43
2019-03-04T17:16:36.034Z,5.87
2019-03-04T17:19:06.623Z,11.77
2019-03-04T17:21:38.326Z,5.80
2019-03-04T17:24:09.314Z,6.83
2019-03-04T17:26:40.104Z,7.43
2019-03-04T17:29:10.880Z,7.87
2019-03-04T17:31:41.602Z,7.47
2019-03-04T17:34:14.039Z,7.23
2019-03-04T17:36:45.398Z,7.00
2019-03-04T17:39:17.319Z,7.83
2019-03-04T17:41:47.846Z,9.43
2019-03-04T17:44:23.348Z,9.70
2019-03-04T17:46:54.363Z,10.60
2019-03-04T17:49:25.062Z,10.17
2019-03-04T17:51:56.202Z,8.87
2019-03-04T17:54:28.841Z,8.70
2019-03-04T17:56:59.423Z,7.93
2019-03-04T17:59:31.307Z,7.93
2019-03-04T18:02:02.295Z,9.10
2019-03-04T18:04:33.068Z,8.10
2019-03-04T18:07:03.780Z,8.03
2019-03-04T18:09:34.539Z,8.13
2019-03-04T18:12:05.068Z,7.43
2019-03-04T18:14:36.011Z,8.23
2019-03-04T18:17:07.754Z,8.07
2019-03-04T18:19:38.646Z,6.63
2019-03-04T18:22:09.487Z,6.27
2019-03-04T18:24:40.388Z,5.77
2019-03-04T18:27:39.494Z,5.50
2019-03-04T18:30:55.940Z,7.33
2019-03-04T18:34:23.172Z,5.97
2019-03-04T18:37:07.009Z,5.70
2019-03-04T18:40:09.520Z,5.10
2019-03-04T18:43:33.495Z,6.07
2019-03-04T18:46:41.103Z,5.30
2019-03-04T18:49:11.965Z,5.13
2019-03-04T18:51:44.067Z,6.20
2019-03-04T18:54:17.025Z,5.33
2019-03-04T18:56:47.833Z,5.23
2019-03-04T18:59:18.700Z,5.37
2019-03-04T19:01:49.903Z,6.07
2019-03-04T19:04:20.796Z,5.37
2019-03-04T19:06:51.864Z,5.97
2019-03-04T19:09:22.719Z,6.80
2019-03-04T19:11:54.248Z,7.07
2019-03-04T19:14:25.261Z,7.77
2019-03-04T19:16:56.229Z,6.97
2019-03-04T19:19:27.078Z,7.87
2019-03-04T19:21:57.936Z,7.93
2019-03-04T19:24:28.726Z,6.60
2019-03-04T19:26:59.799Z,7.40
2019-03-04T19:29:31.179Z,6.70
2019-03-04T19:32:02.333Z,13.07
2019-03-04T19:34:34.475Z,11.23
2019-03-04T19:37:05.509Z,9.50
2019-03-04T19:39:36.500Z,7.97
2019-03-04T19:42:07.708Z,6.40
2019-03-04T19:44:38.695Z,6.33
2019-03-04T19:47:09.485Z,5.97
2019-03-04T19:49:40.350Z,5.13
2019-03-04T19:52:11.440Z,5.87
2019-03-04T19:54:42.564Z,6.13
2019-03-04T19:57:13.389Z,5.63
2019-03-04T19:59:44.546Z,6.20
2019-03-04T20:02:17.362Z,5.50
2019-03-04T20:04:48.383Z,5.00
2019-03-04T20:07:19.649Z,3.63
2019-03-04T20:09:51.677Z,3.30
2019-03-04T20:12:23.643Z,2.50
2019-03-04T20:14:54.632Z,2.60
2019-03-04T20:17:25.817Z,2.10
2019-03-04T20:19:56.608Z,2.00
2019-03-04T20:22:27.462Z,2.27
2019-03-04T20:24:58.461Z,2.60
2019-03-04T20:27:29.690Z,1.87
2019-03-04T20:30:00.686Z,1.83
2019-03-04T20:32:31.927Z,2.30
2019-03-04T20:35:02.629Z,1.87
2019-03-04T20:37:33.710Z,1.70
2019-03-04T20:40:05.116Z,1.90
2019-03-04T20:42:36.081Z,2.00
2019-03-04T20:45:08.817Z,1.80
2019-03-04T20:47:39.854Z,1.77
2019-03-04T20:50:14.901Z,2.27
2019-03-04T20:52:45.716Z,2.17
2019-03-04T20:55:16.705Z,2.27
2019-03-04T20:57:48.111Z,2.90
2019-03-04T21:00:23.688Z,2.77
2019-03-04T21:02:54.629Z,2.80
2019-03-04T21:05:25.986Z,2.90
2019-03-04T21:07:57.401Z,2.90
2019-03-04T21:10:29.951Z,3.40
2019-03-04T21:13:22.831Z,3.77
2019-03-04T21:15:54.076Z,4.43
2019-03-04T21:18:25.279Z,4.10
2019-03-04T21:20:56.616Z,4.77
2019-03-04T21:23:28.113Z,3.83
2019-03-04T21:26:29.470Z,4.57
2019-03-04T21:29:58.681Z,3.87
2019-03-04T21:32:54.250Z,3.70
2019-03-04T21:36:14.401Z,2.87
2019-03-04T21:38:44.973Z,3.23
2019-03-04T21:41:35.801Z,3.30
2019-03-04T21:44:19.908Z,3.70
2019-03-04T21:47:11.156Z,3.43
2019-03-04T21:49:46.128Z,3.23
2019-03-04T21:52:59.530Z,3.50
2019-03-04T21:55:44.568Z,4.17
2019-03-04T21:58:15.871Z,3.73
2019-03-04T22:00:49.560Z,3.60
2019-03-04T22:03:24.279Z,4.43
2019-03-04T22:05:56.375Z,3.53
2019-03-04T22:08:27.621Z,3.40
2019-03-04T22:10:59.202Z,3.20
2019-03-04T22:13:30.055Z,3.03
2019-03-04T22:16:01.171Z,2.67
2019-03-04T22:18:32.144Z,3.50
2019-03-04T22:21:02.910Z,3.47
2019-03-04T22:23:33.444Z,3.50
2019-03-04T22:26:04.109Z,3.70
2019-03-04T22:28:34.772Z,3.23
2019-03-04T22:31:05.409Z,3.17
2019-03-04T22:33:35.957Z,3.60
2019-03-04T22:36:07.979Z,3.10
2019-03-04T22:38:38.936Z,3.50
2019-03-04T22:41:10.819Z,3.00
2019-03-04T22:43:41.474Z,2.47
2019-03-04T22:46:12.286Z,2.60
2019-03-04T22:48:43.015Z,2.83
2019-03-04T22:51:13.870Z,3.10
2019-03-04T22:53:45.360Z,3.43
2019-03-04T22:56:17.182Z,3.27
2019-03-04T22:58:47.886Z,2.93
2019-03-04T23:01:49.886Z,3.37
2019-03-04T23:04:35.639Z,3.30
2019-03-04T23:07:11.248Z,3.00
2019-03-04T23:10:21.169Z,2.70
2019-03-04T23:13:11.855Z,2.80
2019-03-04T23:15:43.180Z,3.27
2019-03-04T23:18:15.219Z,2.90
2019-03-04T23:20:46.067Z,2.47
2019-03-04T23:23:16.605Z,2.43
2019-03-04T23:25:47.436Z,2.43
2019-03-04T23:28:17.903Z,2.40
2019-03-04T23:30:48.642Z,2.30
2019-03-04T23:33:19.229Z,2.70
2019-03-04T23:35:50.284Z,2.20
2019-03-04T23:38:20.839Z,2.10
2019-03-04T23:40:51.508Z,2.20
2019-03-04T23:43:22.226Z,2.00
2019-03-04T23:45:52.823Z,2.50
2019-03-04T23:48:23.411Z,2.40
2019-03-04T23:50:54.474Z,2.23
2019-03-04T23:53:25.399Z,2.20
2019-03-04T23:55:56.100Z,2.27
2019-03-04T23:58:26.656Z,2.83
